Time;durP1;ratioP1;P1;durP2;ratioP2;P2;SDS_P1;SDS_P2;PMS_P1;PMS_P2;Temp;Humidity;BMP_temperature;BMP_pressure;BME280_temperature;BME280_humidity;BME280_pressure;Samples;Min_cycle;Max_cycle;Signal;HPM_P1;HPM_P2
2023/05/17 00:02:02;;;;;;;13.45;2.65;;;10.10;99.90;;;;;;5093907;28;20776;-75
2023/05/17 00:04:27;;;;;;;16.80;2.67;;;10.10;99.90;;;;;;5093546;28;20416;-75
2023/05/17 00:06:53;;;;;;;15.57;3.10;;;10.10;99.90;;;;;;5089349;28;20981;-75
2023/05/17 00:09:19;;;;;;;14.40;3.25;;;10.10;99.90;;;;;;5089090;28;20402;-75
2023/05/17 00:11:44;;;;;;;16.57;3.33;;;10.20;99.90;;;;;;5089111;28;20406;-75
2023/05/17 00:14:10;;;;;;;16.45;3.00;;;10.20;99.90;;;;;;5089347;28;20445;-75
2023/05/17 00:16:36;;;;;;;15.40;3.03;;;10.20;99.90;;;;;;5088639;28;20424;-75
2023/05/17 00:19:02;;;;;;;16.02;2.90;;;10.20;99.90;;;;;;5089085;28;20409;-75
2023/05/17 00:21:30;;;;;;;15.43;3.17;;;10.20;99.90;;;;;;5089315;28;20418;-75
2023/05/17 00:23:55;;;;;;;16.55;3.25;;;10.10;99.90;;;;;;5089029;28;20414;-75
2023/05/17 00:26:21;;;;;;;16.50;2.85;;;10.10;99.90;;;;;;5088183;28;20413;-75
2023/05/17 00:28:47;;;;;;;17.10;3.23;;;10.10;99.90;;;;;;5089150;28;20406;-75
2023/05/17 00:31:12;;;;;;;16.50;3.05;;;10.10;99.90;;;;;;5081570;28;20402;-75
2023/05/17 00:33:38;;;;;;;19.20;3.70;;;10.10;99.90;;;;;;5084624;28;20516;-75
2023/05/17 00:36:04;;;;;;;16.00;2.65;;;10.00;99.90;;;;;;5086628;28;20414;-75
2023/05/17 00:38:30;;;;;;;17.95;3.05;;;10.00;99.90;;;;;;5088498;28;20406;-75
2023/05/17 00:40:55;;;;;;;19.97;3.60;;;10.00;99.90;;;;;;5089085;28;20413;-75
2023/05/17 00:43:21;;;;;;;18.57;2.93;;;10.00;99.90;;;;;;5068670;28;20973;-75
2023/05/17 00:45:49;;;;;;;15.80;2.60;;;10.00;99.90;;;;;;5088473;28;20458;-75
2023/05/17 00:48:15;;;;;;;20.13;3.33;;;10.00;99.90;;;;;;5089712;28;20406;-75
2023/05/17 00:50:41;;;;;;;18.55;2.67;;;9.90;99.90;;;;;;5089009;28;20414;-75
2023/05/17 00:53:08;;;;;;;21.00;3.42;;;9.90;99.90;;;;;;5082692;28;20439;-75
2023/05/17 00:55:33;;;;;;;14.63;3.10;;;9.90;99.90;;;;;;5089860;28;20503;-75
2023/05/17 00:57:59;;;;;;;19.20;3.33;;;9.90;99.90;;;;;;5088756;28;20446;-75
2023/05/17 01:00:25;;;;;;;12.40;2.30;;;9.80;99.90;;;;;;5089294;28;20433;-75
2023/05/17 01:02:51;;;;;;;15.55;2.50;;;9.80;99.90;;;;;;5088626;28;20410;-75
2023/05/17 01:05:17;;;;;;;13.63;2.43;;;9.70;99.90;;;;;;5089496;28;20409;-75
2023/05/17 01:07:42;;;;;;;11.93;2.00;;;9.70;99.90;;;;;;5089706;28;21088;-75
2023/05/17 01:10:09;;;;;;;11.63;1.77;;;9.70;99.90;;;;;;5089728;28;20402;-75
2023/05/17 01:12:46;;;;;;;10.63;2.10;;;9.60;99.90;;;;;;5088198;28;20409;-75
2023/05/17 01:15:22;;;;;;;11.32;1.63;;;9.60;99.90;;;;;;5088751;28;20471;-75
2023/05/17 01:18:11;;;;;;;10.77;2.17;;;9.60;99.90;;;;;;5082250;28;20421;-75
2023/05/17 01:20:40;;;;;;;10.50;1.73;;;9.50;99.90;;;;;;5087296;28;20504;-75
2023/05/17 01:23:19;;;;;;;10.52;1.85;;;9.50;99.90;;;;;;5087841;28;20970;-75
2023/05/17 01:26:00;;;;;;;12.95;2.38;;;9.50;99.90;;;;;;5088854;28;20971;-75
2023/05/17 01:28:28;;;;;;;12.73;2.22;;;9.50;99.90;;;;;;5071564;28;20417;-75
2023/05/17 01:30:56;;;;;;;13.03;2.17;;;9.50;99.90;;;;;;5070977;28;20405;-75
2023/05/17 01:33:22;;;;;;;12.67;2.07;;;9.60;99.90;;;;;;5087807;28;20472;-75
2023/05/17 01:35:48;;;;;;;11.90;1.88;;;9.60;99.90;;;;;;5087925;28;20489;-75
2023/05/17 01:38:13;;;;;;;12.50;2.17;;;9.70;99.90;;;;;;5071160;28;20486;-75
2023/05/17 01:40:55;;;;;;;13.18;1.92;;;9.70;99.90;;;;;;5085121;28;21336;-75
2023/05/17 01:43:35;;;;;;;12.65;2.40;;;9.70;99.90;;;;;;5084882;28;20488;-75
2023/05/17 01:46:18;;;;;;;14.20;2.20;;;9.70;99.90;;;;;;5078592;28;20440;-75
2023/05/17 01:49:12;;;;;;;16.48;2.40;;;9.80;99.90;;;;;;5084510;28;20425;-75
2023/05/17 01:52:02;;;;;;;15.55;2.33;;;9.80;99.90;;;;;;5087598;28;20501;-75
2023/05/17 01:54:35;;;;;;;15.85;2.35;;;9.80;99.90;;;;;;5081384;28;20425;-75
2023/05/17 01:57:05;;;;;;;15.20;2.28;;;9.70;99.90;;;;;;5087355;28;20868;-75
2023/05/17 01:59:33;;;;;;;10.20;2.03;;;9.70;99.90;;;;;;5080617;28;20818;-75
2023/05/17 02:02:05;;;;;;;10.85;1.95;;;9.60;99.90;;;;;;5063008;28;20413;-75
2023/05/17 02:04:31;;;;;;;12.73;1.90;;;9.60;99.90;;;;;;5058078;28;20929;-75
2023/05/17 02:06:56;;;;;;;10.27;1.98;;;9.50;99.90;;;;;;5087495;28;20760;-74
2023/05/17 02:09:22;;;;;;;12.23;1.50;;;9.50;99.90;;;;;;5085910;28;20417;-75
2023/05/17 02:11:48;;;;;;;11.55;1.90;;;9.50;99.90;;;;;;5087010;28;20410;-74
2023/05/17 02:14:13;;;;;;;13.17;1.67;;;9.40;99.90;;;;;;5088202;28;20800;-75
2023/05/17 02:16:39;;;;;;;9.90;1.52;;;9.40;99.90;;;;;;5077209;28;20407;-75
2023/05/17 02:19:06;;;;;;;12.57;1.67;;;9.40;99.90;;;;;;5083155;28;20413;-75
2023/05/17 02:21:31;;;;;;;11.38;1.95;;;9.40;99.90;;;;;;5087297;28;20813;-75
2023/05/17 02:23:57;;;;;;;14.38;1.80;;;9.40;99.90;;;;;;5086613;28;20463;-75
2023/05/17 02:26:23;;;;;;;10.77;1.50;;;9.40;99.90;;;;;;5088457;28;20402;-75
2023/05/17 02:28:48;;;;;;;11.88;2.33;;;9.40;99.90;;;;;;5086913;28;20680;-75
2023/05/17 02:31:14;;;;;;;10.60;1.40;;;9.40;99.90;;;;;;5087979;28;20402;-74
2023/05/17 02:33:40;;;;;;;10.27;1.33;;;9.40;99.90;;;;;;5087825;28;20429;-75
2023/05/17 02:36:05;;;;;;;8.27;1.58;;;9.40;99.90;;;;;;5087914;28;20409;-75
2023/05/17 02:38:31;;;;;;;12.90;1.87;;;9.40;99.90;;;;;;5088448;28;20815;-75
2023/05/17 02:40:57;;;;;;;14.82;2.22;;;9.40;99.90;;;;;;5087539;28;20783;-75
2023/05/17 02:43:22;;;;;;;11.17;1.60;;;9.40;99.90;;;;;;5088220;28;20462;-75
2023/05/17 02:45:48;;;;;;;10.63;1.57;;;9.40;99.90;;;;;;5087761;28;20457;-75
2023/05/17 02:48:13;;;;;;;8.90;1.73;;;9.40;99.90;;;;;;5088412;28;20402;-75
2023/05/17 02:50:39;;;;;;;8.83;1.07;;;9.40;99.90;;;;;;5087758;28;20406;-74
2023/05/17 02:53:05;;;;;;;8.95;1.40;;;9.40;99.90;;;;;;5087645;28;20429;-74
2023/05/17 02:55:30;;;;;;;7.80;1.30;;;9.40;99.90;;;;;;5086606;28;20402;-75
2023/05/17 02:57:56;;;;;;;12.15;1.70;;;9.40;99.90;;;;;;5076890;28;20770;-74
2023/05/17 03:00:21;;;;;;;10.77;1.47;;;9.30;99.90;;;;;;5070102;28;20410;-74
2023/05/17 03:02:47;;;;;;;8.73;1.30;;;9.30;99.90;;;;;;5080778;28;20404;-75
2023/05/17 03:05:13;;;;;;;8.93;1.37;;;9.30;99.90;;;;;;5082950;28;20463;-74
2023/05/17 03:07:38;;;;;;;7.20;1.45;;;9.30;99.90;;;;;;5058912;28;20486;-75
2023/05/17 03:10:04;;;;;;;7.10;1.20;;;9.20;99.90;;;;;;5087316;28;20422;-74
2023/05/17 03:12:30;;;;;;;10.57;1.60;;;9.20;99.90;;;;;;5069492;28;20406;-74
2023/05/17 03:14:55;;;;;;;7.93;1.30;;;9.30;99.90;;;;;;5087071;28;20410;-74
2023/05/17 03:17:21;;;;;;;8.00;1.57;;;9.30;99.90;;;;;;5086612;28;20907;-75
2023/05/17 03:19:46;;;;;;;7.63;1.27;;;9.30;99.90;;;;;;5085820;28;20414;-74
2023/05/17 03:22:12;;;;;;;7.53;1.30;;;9.30;99.90;;;;;;5069288;28;20964;-75
2023/05/17 03:24:38;;;;;;;10.93;1.20;;;9.30;99.90;;;;;;5086123;28;20405;-75
2023/05/17 03:27:03;;;;;;;8.20;1.20;;;9.30;99.90;;;;;;5087480;28;20413;-75
2023/05/17 03:29:29;;;;;;;10.60;1.53;;;9.40;99.90;;;;;;5086228;28;20421;-75
2023/05/17 03:31:55;;;;;;;6.43;1.20;;;9.40;99.90;;;;;;5086093;28;20409;-74
2023/05/17 03:34:20;;;;;;;10.60;1.33;;;9.40;99.90;;;;;;5085999;28;20796;-74
2023/05/17 03:36:46;;;;;;;9.43;1.30;;;9.40;99.90;;;;;;5087240;28;20816;-75
2023/05/17 03:39:11;;;;;;;9.93;1.30;;;9.40;99.90;;;;;;5086249;28;20406;-75
2023/05/17 03:41:37;;;;;;;10.07;1.45;;;9.40;99.90;;;;;;5088245;28;20415;-74
2023/05/17 03:44:03;;;;;;;10.43;1.47;;;9.50;99.90;;;;;;5091035;28;20433;-74
2023/05/17 03:46:28;;;;;;;11.95;1.70;;;9.50;99.90;;;;;;5090103;28;20497;-75
2023/05/17 03:48:54;;;;;;;9.43;1.20;;;9.50;99.90;;;;;;5089704;28;20405;-75
2023/05/17 03:51:20;;;;;;;11.40;1.65;;;9.50;99.90;;;;;;5090164;28;20486;-75
2023/05/17 03:53:45;;;;;;;9.05;1.15;;;9.50;99.90;;;;;;5089063;28;20429;-74
2023/05/17 03:56:11;;;;;;;11.90;1.13;;;9.50;99.90;;;;;;5090646;28;20482;-74
2023/05/17 03:58:36;;;;;;;12.73;1.70;;;9.50;99.90;;;;;;5088431;28;20406;-74
2023/05/17 04:01:03;;;;;;;9.50;1.23;;;9.50;99.90;;;;;;5089164;28;20409;-75
2023/05/17 04:03:29;;;;;;;8.88;1.20;;;9.50;99.90;;;;;;5088107;28;20456;-75
2023/05/17 04:06:05;;;;;;;8.50;1.10;;;9.50;99.90;;;;;;5088288;28;20496;-75
2023/05/17 04:08:32;;;;;;;8.38;0.90;;;9.50;99.90;;;;;;5089547;28;20441;-75
2023/05/17 04:10:58;;;;;;;10.98;1.40;;;9.50;99.90;;;;;;5090327;28;20413;-75
2023/05/17 04:13:24;;;;;;;8.60;1.00;;;9.50;99.90;;;;;;5089367;28;20433;-75
2023/05/17 04:15:50;;;;;;;6.65;0.77;;;9.50;99.90;;;;;;5088774;28;20776;-75
2023/05/17 04:18:15;;;;;;;7.77;1.30;;;9.50;99.90;;;;;;5088726;28;20413;-75
2023/05/17 04:20:41;;;;;;;8.27;1.50;;;9.50;99.90;;;;;;5089243;28;20405;-75
2023/05/17 04:23:07;;;;;;;12.03;1.47;;;9.50;99.90;;;;;;5088038;28;20402;-75
2023/05/17 04:25:33;;;;;;;10.15;1.77;;;9.40;99.90;;;;;;5089642;28;20402;-75
2023/05/17 04:27:59;;;;;;;11.73;1.75;;;9.50;99.90;;;;;;5088921;28;20546;-75
2023/05/17 04:30:24;;;;;;;7.60;1.17;;;9.50;99.90;;;;;;5088536;28;20402;-75
2023/05/17 04:32:50;;;;;;;9.67;1.27;;;9.50;99.90;;;;;;5087997;28;20418;-74
2023/05/17 04:35:16;;;;;;;9.50;1.50;;;9.60;99.90;;;;;;5089341;28;21153;-74
2023/05/17 04:37:41;;;;;;;9.37;1.30;;;9.60;99.90;;;;;;5089407;28;20390;-74
2023/05/17 04:40:07;;;;;;;12.38;1.98;;;9.60;99.90;;;;;;5088498;28;20783;-74
2023/05/17 04:42:33;;;;;;;13.57;1.95;;;9.60;99.90;;;;;;5070917;28;20414;-74
2023/05/17 04:44:59;;;;;;;16.88;2.58;;;9.60;99.90;;;;;;5088030;28;20414;-74
2023/05/17 04:47:24;;;;;;;10.50;1.60;;;9.60;99.90;;;;;;5087854;28;20414;-75
2023/05/17 04:49:50;;;;;;;16.55;2.38;;;9.60;99.90;;;;;;5088448;28;20410;-75
2023/05/17 04:52:16;;;;;;;9.53;1.93;;;9.60;99.90;;;;;;5089736;28;20406;-75
2023/05/17 04:54:42;;;;;;;10.35;1.70;;;9.60;99.90;;;;;;5088154;28;20448;-75
2023/05/17 04:57:07;;;;;;;10.80;1.80;;;9.60;99.90;;;;;;5088256;28;20402;-75
2023/05/17 04:59:33;;;;;;;16.50;2.43;;;9.60;99.90;;;;;;5090031;28;20409;-74
2023/05/17 05:01:58;;;;;;;9.82;1.65;;;9.60;99.90;;;;;;5071600;28;21028;-75
2023/05/17 05:04:24;;;;;;;10.23;1.80;;;9.60;99.90;;;;;;5089551;28;20409;-75
2023/05/17 05:06:50;;;;;;;9.48;2.25;;;9.50;99.90;;;;;;5089511;28;20394;-74
2023/05/17 05:09:16;;;;;;;11.35;1.60;;;9.60;99.90;;;;;;5088752;28;20434;-75
2023/05/17 05:11:41;;;;;;;14.67;2.33;;;9.60;99.90;;;;;;5071611;28;20565;-75
2023/05/17 05:14:07;;;;;;;10.45;1.80;;;9.50;99.90;;;;;;5087812;28;20433;-75
2023/05/17 05:16:33;;;;;;;11.73;2.35;;;9.60;99.90;;;;;;5089466;28;20414;-74
2023/05/17 05:18:58;;;;;;;12.23;2.23;;;9.50;99.90;;;;;;5089512;28;20417;-74
2023/05/17 05:21:24;;;;;;;16.70;1.90;;;9.50;99.90;;;;;;5087981;28;20406;-75
2023/05/17 05:23:50;;;;;;;12.37;1.63;;;9.50;99.90;;;;;;5087679;28;20402;-74
2023/05/17 05:26:15;;;;;;;14.63;2.13;;;9.50;99.90;;;;;;5088041;28;20402;-74
2023/05/17 05:28:41;;;;;;;13.97;2.20;;;9.50;99.90;;;;;;5087467;28;20806;-75
2023/05/17 05:31:07;;;;;;;11.43;2.10;;;9.50;99.90;;;;;;5089011;28;20433;-74
2023/05/17 05:33:32;;;;;;;14.32;2.53;;;9.60;99.90;;;;;;5088850;28;20438;-75
2023/05/17 05:35:58;;;;;;;11.40;1.80;;;9.50;99.90;;;;;;5087310;28;20916;-75
2023/05/17 05:38:23;;;;;;;12.23;1.95;;;9.60;99.90;;;;;;5085139;28;20474;-76
2023/05/17 05:40:49;;;;;;;11.87;1.97;;;9.60;99.90;;;;;;5075542;28;20449;-72
2023/05/17 05:43:15;;;;;;;11.88;2.00;;;9.60;99.90;;;;;;5096145;28;20405;-72
2023/05/17 05:45:44;;;;;;;15.67;2.60;;;9.70;99.90;;;;;;5089980;28;20402;-73
2023/05/17 05:48:11;;;;;;;12.63;1.70;;;9.70;99.90;;;;;;5090836;28;20442;-73
2023/05/17 05:50:37;;;;;;;12.20;1.98;;;9.70;99.90;;;;;;5087300;28;20418;-73
2023/05/17 05:53:03;;;;;;;11.25;2.08;;;9.80;99.90;;;;;;5089664;28;20428;-73
2023/05/17 05:55:29;;;;;;;15.87;2.17;;;9.90;99.90;;;;;;5085343;28;20417;-74
2023/05/17 05:57:54;;;;;;;17.27;3.00;;;9.90;99.90;;;;;;5087339;28;20455;-74
2023/05/17 06:00:20;;;;;;;11.53;2.00;;;9.90;99.90;;;;;;5087609;28;20402;-74
2023/05/17 06:02:46;;;;;;;15.13;2.67;;;10.00;99.90;;;;;;5086868;28;20412;-74
2023/05/17 06:05:12;;;;;;;11.03;2.27;;;10.00;99.90;;;;;;5084039;28;20405;-74
2023/05/17 06:07:37;;;;;;;12.10;2.15;;;10.00;99.90;;;;;;5092788;28;20808;-74
2023/05/17 06:10:03;;;;;;;14.30;2.57;;;10.10;99.90;;;;;;5093206;28;20507;-75
2023/05/17 06:12:29;;;;;;;11.75;1.95;;;10.10;99.90;;;;;;5086159;28;20509;-75
2023/05/17 06:14:54;;;;;;;13.47;2.23;;;10.10;99.90;;;;;;5087348;28;20405;-75
2023/05/17 06:17:20;;;;;;;12.70;2.07;;;10.10;99.90;;;;;;5086786;28;20402;-75
2023/05/17 06:19:47;;;;;;;14.75;2.45;;;10.10;99.90;;;;;;5087056;28;20423;-75
2023/05/17 06:22:14;;;;;;;11.35;2.10;;;10.10;99.90;;;;;;5088491;28;20511;-75
2023/05/17 06:24:40;;;;;;;13.73;2.42;;;10.20;99.90;;;;;;5069992;28;20410;-75
2023/05/17 06:27:06;;;;;;;12.73;2.07;;;10.30;99.90;;;;;;5088300;28;20400;-75
2023/05/17 06:29:31;;;;;;;10.30;1.92;;;10.40;99.90;;;;;;5087103;28;20445;-75
2023/05/17 06:31:58;;;;;;;11.05;2.03;;;10.50;99.90;;;;;;5087984;28;21133;-75
2023/05/17 06:34:24;;;;;;;14.45;2.30;;;10.50;99.90;;;;;;5088198;28;20469;-75
2023/05/17 06:36:50;;;;;;;10.00;1.95;;;10.50;99.90;;;;;;5087606;28;20412;-75
2023/05/17 06:39:16;;;;;;;9.95;1.50;;;10.50;99.90;;;;;;5086712;28;20402;-75
2023/05/17 06:41:42;;;;;;;7.80;1.50;;;10.50;99.90;;;;;;5087759;28;20461;-75
2023/05/17 06:44:07;;;;;;;11.60;1.75;;;10.50;99.90;;;;;;5088374;28;20429;-75
2023/05/17 06:46:33;;;;;;;8.90;1.53;;;10.60;99.90;;;;;;5086611;28;20410;-75
2023/05/17 06:48:59;;;;;;;8.65;1.67;;;10.60;99.90;;;;;;5087268;28;20629;-75
2023/05/17 06:51:25;;;;;;;7.85;1.27;;;10.70;99.90;;;;;;5088143;28;20406;-75
2023/05/17 06:53:50;;;;;;;11.90;1.73;;;10.60;99.90;;;;;;5086405;28;20429;-75
2023/05/17 06:56:16;;;;;;;9.40;1.67;;;10.50;99.90;;;;;;5086750;28;20420;-75
2023/05/17 06:58:41;;;;;;;10.37;1.80;;;10.60;99.90;;;;;;5085709;28;20409;-75
2023/05/17 07:01:07;;;;;;;9.77;1.50;;;10.60;99.90;;;;;;5070077;28;20413;-75
2023/05/17 07:03:33;;;;;;;8.18;1.40;;;10.70;99.90;;;;;;5086442;28;20440;-75
2023/05/17 07:05:58;;;;;;;8.97;1.50;;;10.70;99.90;;;;;;5069815;28;20402;-75
2023/05/17 07:08:24;;;;;;;7.75;1.73;;;10.70;99.90;;;;;;5086169;28;20413;-76
2023/05/17 07:10:51;;;;;;;15.63;2.47;;;10.80;99.90;;;;;;5086603;28;20579;-75
2023/05/17 07:13:17;;;;;;;12.05;1.77;;;10.70;99.90;;;;;;5087945;28;21213;-75
2023/05/17 07:15:42;;;;;;;9.90;1.65;;;10.80;99.90;;;;;;5088789;28;20486;-75
2023/05/17 07:18:08;;;;;;;10.30;1.47;;;10.80;99.90;;;;;;5073456;28;20516;-75
2023/05/17 07:20:33;;;;;;;7.55;1.38;;;10.80;99.90;;;;;;5090301;28;20497;-75
2023/05/17 07:22:59;;;;;;;8.73;1.60;;;10.80;99.90;;;;;;5091202;28;20402;-75
2023/05/17 07:25:25;;;;;;;11.55;1.77;;;10.80;99.90;;;;;;5090580;28;20829;-76
2023/05/17 07:27:51;;;;;;;8.57;1.45;;;11.00;99.90;;;;;;5091137;28;20832;-76
2023/05/17 07:30:16;;;;;;;10.37;1.23;;;11.10;99.90;;;;;;5089809;28;20420;-76
2023/05/17 07:32:42;;;;;;;6.80;1.33;;;11.30;99.90;;;;;;5071370;28;20412;-76
2023/05/17 07:35:07;;;;;;;7.53;1.50;;;11.50;99.90;;;;;;5090273;28;20406;-76
2023/05/17 07:37:33;;;;;;;9.75;1.92;;;11.50;99.90;;;;;;5089507;28;21000;-76
2023/05/17 07:39:59;;;;;;;9.47;1.30;;;11.50;99.90;;;;;;5091170;28;20405;-75
2023/05/17 07:42:24;;;;;;;8.13;1.30;;;11.40;99.90;;;;;;5090055;28;20433;-76
2023/05/17 07:44:50;;;;;;;7.03;1.52;;;11.40;99.90;;;;;;5089630;28;20426;-75
2023/05/17 07:47:16;;;;;;;11.43;1.63;;;11.40;99.90;;;;;;5089630;28;20753;-75
2023/05/17 07:49:41;;;;;;;10.05;1.88;;;11.40;99.90;;;;;;5089828;28;20402;-76
2023/05/17 07:52:07;;;;;;;9.13;1.50;;;11.40;99.90;;;;;;5089744;28;20441;-76
2023/05/17 07:54:33;;;;;;;9.63;1.65;;;11.40;99.90;;;;;;5089501;28;20521;-76
2023/05/17 07:56:59;;;;;;;8.47;1.20;;;11.40;99.90;;;;;;5089335;28;20402;-76
2023/05/17 07:59:25;;;;;;;8.48;1.42;;;11.50;99.90;;;;;;5089345;28;20410;-76
2023/05/17 08:01:51;;;;;;;9.75;1.50;;;11.50;99.90;;;;;;5089717;28;20412;-76
2023/05/17 08:04:18;;;;;;;10.23;1.50;;;11.50;99.90;;;;;;5072930;28;20484;-75
2023/05/17 08:06:45;;;;;;;8.77;1.42;;;11.60;99.90;;;;;;5088301;28;20417;-76
2023/05/17 08:09:11;;;;;;;7.33;1.30;;;11.70;99.90;;;;;;5088533;28;20493;-76
2023/05/17 08:11:40;;;;;;;10.95;1.70;;;11.70;99.90;;;;;;5088958;28;20484;-76
2023/05/17 08:14:06;;;;;;;6.95;1.20;;;11.70;99.90;;;;;;5088830;28;20484;-76
2023/05/17 08:16:31;;;;;;;10.23;1.70;;;11.60;99.90;;;;;;5090183;28;20440;-76
2023/05/17 08:18:57;;;;;;;7.50;1.30;;;11.60;99.90;;;;;;5089119;28;20406;-76
2023/05/17 08:21:23;;;;;;;9.90;1.67;;;11.60;99.90;;;;;;5089558;28;20524;-76
2023/05/17 08:23:49;;;;;;;9.80;1.50;;;11.70;99.90;;;;;;5088876;28;20406;-76
2023/05/17 08:26:14;;;;;;;9.10;1.67;;;11.60;99.90;;;;;;5088927;28;20397;-76
2023/05/17 08:28:40;;;;;;;10.27;1.60;;;11.60;99.90;;;;;;5087532;28;20479;-75
2023/05/17 08:31:06;;;;;;;8.57;1.37;;;11.60;99.90;;;;;;5089035;28;20422;-76
2023/05/17 08:33:31;;;;;;;9.00;1.73;;;11.50;99.90;;;;;;5088795;28;20440;-76
2023/05/17 08:36:00;;;;;;;10.35;1.33;;;11.50;99.90;;;;;;5088761;28;20899;-76
2023/05/17 08:38:25;;;;;;;8.43;1.80;;;11.60;99.90;;;;;;5087772;28;20406;-76
2023/05/17 08:40:55;;;;;;;9.77;1.13;;;11.60;99.90;;;;;;5087961;28;20398;-76
2023/05/17 08:43:23;;;;;;;7.05;1.40;;;11.70;99.90;;;;;;5072088;28;20413;-75
2023/05/17 08:45:50;;;;;;;9.80;1.55;;;11.70;99.90;;;;;;5071471;28;20911;-76
2023/05/17 08:48:18;;;;;;;7.70;1.25;;;11.60;99.90;;;;;;5088308;28;20410;-76
2023/05/17 08:50:45;;;;;;;10.48;1.40;;;11.60;99.90;;;;;;5088690;28;21767;-76
2023/05/17 08:53:12;;;;;;;10.15;1.50;;;11.60;99.90;;;;;;5089438;28;20422;-76
2023/05/17 08:55:41;;;;;;;11.23;1.73;;;11.70;99.90;;;;;;5071440;28;20433;-76
2023/05/17 08:58:08;;;;;;;9.40;1.13;;;11.60;99.90;;;;;;5079806;28;20433;-76
2023/05/17 09:00:34;;;;;;;7.83;1.50;;;11.60;99.90;;;;;;5089504;28;20394;-76
2023/05/17 09:03:00;;;;;;;7.17;1.33;;;11.60;99.90;;;;;;5083258;28;20410;-75
2023/05/17 09:05:27;;;;;;;6.85;1.10;;;11.60;99.90;;;;;;5085970;28;20502;-76
2023/05/17 09:07:53;;;;;;;7.83;1.47;;;11.60;99.90;;;;;;5069496;28;20485;-76
2023/05/17 09:10:19;;;;;;;8.35;1.40;;;11.70;99.90;;;;;;5069358;28;20398;-76
2023/05/17 09:12:45;;;;;;;8.32;1.60;;;11.70;99.90;;;;;;5078105;28;20418;-76
2023/05/17 09:15:16;;;;;;;9.27;1.60;;;11.70;99.90;;;;;;5087591;28;20420;-76
2023/05/17 09:17:42;;;;;;;10.05;1.60;;;11.80;99.90;;;;;;5087879;28;20409;-76
2023/05/17 09:20:09;;;;;;;9.30;1.35;;;11.90;99.90;;;;;;5087853;28;20402;-76
2023/05/17 09:22:35;;;;;;;7.57;1.30;;;12.10;99.90;;;;;;5071052;28;20904;-76
2023/05/17 09:25:03;;;;;;;6.38;1.08;;;12.20;99.90;;;;;;5087729;28;20409;-76
2023/05/17 09:27:30;;;;;;;8.57;1.33;;;12.30;99.90;;;;;;5089202;28;20413;-76
2023/05/17 09:29:56;;;;;;;5.75;1.15;;;12.40;99.90;;;;;;5088730;28;20404;-76
2023/05/17 09:32:23;;;;;;;7.63;1.23;;;12.50;99.90;;;;;;5087869;28;20474;-76
2023/05/17 09:34:50;;;;;;;7.32;1.00;;;12.50;99.90;;;;;;5087338;28;20430;-76
2023/05/17 09:37:17;;;;;;;6.07;0.90;;;12.60;99.50;;;;;;5088177;28;20413;-76
2023/05/17 09:39:45;;;;;;;5.93;0.90;;;12.60;99.80;;;;;;5078653;28;20405;-76
2023/05/17 09:42:11;;;;;;;7.30;1.30;;;12.70;99.10;;;;;;5088591;28;20919;-76
2023/05/17 09:44:52;;;;;;;7.28;1.10;;;12.80;98.90;;;;;;5088824;28;20402;-76
2023/05/17 09:47:30;;;;;;;6.57;0.95;;;13.00;99.70;;;;;;5088909;28;20884;-76
2023/05/17 09:49:59;;;;;;;7.13;1.20;;;13.30;99.40;;;;;;5087626;28;20468;-76
2023/05/17 09:52:30;;;;;;;6.50;1.17;;;13.50;98.50;;;;;;5087291;28;20409;-76
2023/05/17 09:54:58;;;;;;;8.07;1.47;;;13.70;99.00;;;;;;5081799;28;20581;-76
2023/05/17 09:57:26;;;;;;;7.23;1.10;;;13.70;98.40;;;;;;5084823;28;20417;-76
2023/05/17 09:59:56;;;;;;;6.88;1.33;;;13.60;98.60;;;;;;5087370;28;20508;-76
2023/05/17 10:02:26;;;;;;;7.90;1.38;;;13.40;98.80;;;;;;5070629;28;20434;-76
2023/05/17 10:04:55;;;;;;;10.10;1.30;;;13.20;98.90;;;;;;5088525;28;20426;-77
2023/05/17 10:07:24;;;;;;;9.05;1.08;;;13.00;99.80;;;;;;5066676;28;20944;-76
2023/05/17 10:09:52;;;;;;;6.78;1.20;;;12.90;99.90;;;;;;5081377;28;20523;-75
2023/05/17 10:12:21;;;;;;;7.40;1.13;;;12.80;99.90;;;;;;5086718;28;20409;-76
2023/05/17 10:14:47;;;;;;;8.93;1.73;;;12.70;99.90;;;;;;5086538;28;20429;-76
2023/05/17 10:17:14;;;;;;;8.70;1.40;;;12.70;99.90;;;;;;5087021;28;20406;-76
2023/05/17 10:19:40;;;;;;;9.85;1.60;;;12.60;99.90;;;;;;5086902;28;20410;-76
2023/05/17 10:22:07;;;;;;;9.02;1.65;;;12.70;99.90;;;;;;5085104;28;20501;-76
2023/05/17 10:24:36;;;;;;;8.07;1.40;;;12.80;99.90;;;;;;5088379;28;20462;-76
2023/05/17 10:27:04;;;;;;;9.18;1.40;;;12.80;99.90;;;;;;5086872;28;20470;-76
2023/05/17 10:29:30;;;;;;;7.43;1.30;;;13.00;99.90;;;;;;5086974;28;20411;-77
2023/05/17 10:31:57;;;;;;;10.93;1.30;;;13.00;99.90;;;;;;5069983;28;20406;-76
2023/05/17 10:34:26;;;;;;;7.78;1.38;;;13.00;99.90;;;;;;5088081;28;20428;-76
2023/05/17 10:36:52;;;;;;;11.20;1.58;;;13.00;99.90;;;;;;5086578;28;20406;-76
2023/05/17 10:39:20;;;;;;;6.60;1.27;;;13.10;99.90;;;;;;5088432;28;20406;-76
2023/05/17 10:41:51;;;;;;;7.20;1.00;;;13.20;99.30;;;;;;5069641;28;20822;-76
2023/05/17 10:44:17;;;;;;;6.00;1.00;;;13.30;98.70;;;;;;5070223;28;20424;-76
2023/05/17 10:46:56;;;;;;;7.50;1.23;;;13.40;98.20;;;;;;5086808;28;20827;-76
2023/05/17 10:49:30;;;;;;;5.22;1.10;;;13.60;97.80;;;;;;5086586;28;20456;-76
2023/05/17 10:51:57;;;;;;;6.63;1.10;;;13.70;96.80;;;;;;5085936;28;20414;-76
2023/05/17 10:54:34;;;;;;;6.13;1.08;;;13.70;96.30;;;;;;5086425;28;20434;-77
2023/05/17 10:57:03;;;;;;;6.20;1.02;;;13.80;96.20;;;;;;5069794;28;20413;-76
2023/05/17 10:59:30;;;;;;;5.38;0.93;;;13.90;95.40;;;;;;5086286;28;20402;-77
2023/05/17 11:02:06;;;;;;;5.55;1.10;;;14.10;95.60;;;;;;5087892;28;20600;-76
2023/05/17 11:04:38;;;;;;;5.95;1.20;;;14.40;95.10;;;;;;5080944;28;20416;-77
2023/05/17 11:07:16;;;;;;;8.00;1.60;;;14.90;94.10;;;;;;5085480;28;20864;-77
2023/05/17 11:09:53;;;;;;;6.75;1.13;;;15.20;94.40;;;;;;5069871;28;20410;-77
2023/05/17 11:12:40;;;;;;;8.77;1.55;;;15.30;94.60;;;;;;5087002;28;20424;-77
2023/05/17 11:15:11;;;;;;;9.82;1.67;;;15.30;94.50;;;;;;5086360;28;20421;-77
2023/05/17 11:17:52;;;;;;;7.80;1.38;;;15.40;94.20;;;;;;5086380;28;20451;-77
2023/05/17 11:20:24;;;;;;;7.50;1.40;;;15.20;93.20;;;;;;5086394;28;20916;-76
2023/05/17 11:23:03;;;;;;;8.88;1.67;;;14.90;92.70;;;;;;5086847;28;20479;-77
2023/05/17 11:25:34;;;;;;;10.48;1.83;;;14.70;93.90;;;;;;5085082;28;20417;-76
2023/05/17 11:28:16;;;;;;;10.13;1.52;;;14.60;93.80;;;;;;5069285;28;20475;-76
2023/05/17 11:30:46;;;;;;;8.95;1.33;;;14.50;93.70;;;;;;5086659;28;20494;-76
2023/05/17 11:33:12;;;;;;;7.97;1.13;;;14.30;93.80;;;;;;5076486;28;20418;-76
2023/05/17 11:35:38;;;;;;;9.75;1.60;;;14.30;93.40;;;;;;5088142;28;20390;-77
2023/05/17 11:38:20;;;;;;;7.95;1.55;;;14.30;92.60;;;;;;5087607;28;20485;-76
2023/05/17 11:40:48;;;;;;;8.00;1.33;;;14.30;92.40;;;;;;5085811;28;20406;-76
2023/05/17 11:43:22;;;;;;;7.68;1.55;;;14.30;92.60;;;;;;5087159;28;20405;-76
2023/05/17 11:45:53;;;;;;;8.45;1.40;;;14.30;91.60;;;;;;5087547;28;20402;-76
2023/05/17 11:48:23;;;;;;;7.80;1.73;;;14.40;90.80;;;;;;5087563;28;20414;-76
2023/05/17 11:50:50;;;;;;;8.75;1.73;;;14.30;90.60;;;;;;5087410;28;20432;-76
2023/05/17 11:53:17;;;;;;;7.70;1.38;;;14.40;90.90;;;;;;5087065;28;20426;-77
2023/05/17 11:55:47;;;;;;;9.00;1.38;;;14.50;90.80;;;;;;5087761;28;20424;-76
2023/05/17 11:58:27;;;;;;;8.00;1.25;;;14.50;90.50;;;;;;5087884;28;20824;-76
2023/05/17 12:00:54;;;;;;;7.97;1.35;;;14.60;91.40;;;;;;5087211;28;20405;-76
2023/05/17 12:03:26;;;;;;;7.63;1.30;;;14.50;90.20;;;;;;5089398;28;20489;-76
2023/05/17 12:06:02;;;;;;;8.50;1.20;;;14.60;90.70;;;;;;5087225;28;21265;-77
2023/05/17 12:08:27;;;;;;;7.78;1.20;;;14.70;90.70;;;;;;5089580;28;21122;-77
2023/05/17 12:10:56;;;;;;;7.65;1.45;;;15.00;90.70;;;;;;5089675;28;20471;-77
2023/05/17 12:13:21;;;;;;;7.30;1.50;;;15.50;89.60;;;;;;5090780;28;20423;-77
2023/05/17 12:16:13;;;;;;;7.05;1.58;;;16.00;91.10;;;;;;5089360;28;20755;-77
2023/05/17 12:18:41;;;;;;;7.63;1.38;;;16.20;87.00;;;;;;5090419;28;20497;-77
2023/05/17 12:21:08;;;;;;;8.85;1.27;;;16.30;83.90;;;;;;5090677;28;20406;-77
2023/05/17 12:23:42;;;;;;;8.27;1.40;;;16.40;85.00;;;;;;5089007;28;20414;-77
2023/05/17 12:26:16;;;;;;;8.85;1.40;;;16.50;88.00;;;;;;5089383;28;20421;-77
2023/05/17 12:28:56;;;;;;;8.63;1.27;;;16.30;85.50;;;;;;5088920;28;20406;-77
2023/05/17 12:31:37;;;;;;;7.15;1.60;;;16.00;85.40;;;;;;5090314;28;20459;-77
2023/05/17 12:34:07;;;;;;;7.85;1.35;;;15.80;84.60;;;;;;5090668;28;20531;-77
2023/05/17 12:36:35;;;;;;;8.60;1.50;;;15.60;86.00;;;;;;5089801;28;20417;-77
2023/05/17 12:39:04;;;;;;;9.50;1.75;;;15.50;85.10;;;;;;5090801;28;20417;-76
2023/05/17 12:41:31;;;;;;;9.27;1.63;;;15.40;87.00;;;;;;5090405;28;21760;-77
2023/05/17 12:43:57;;;;;;;9.15;1.70;;;15.30;87.20;;;;;;5090171;28;20398;-77
2023/05/17 12:46:23;;;;;;;11.33;1.50;;;15.30;88.80;;;;;;5088469;28;20892;-77
2023/05/17 12:48:52;;;;;;;10.35;1.80;;;15.20;89.80;;;;;;5090063;28;20845;-77